createdAt,value
2019-02-24T00:02:18.573Z,102065.34
2019-02-24T00:04:49.941Z,102067.09
2019-02-24T00:07:21.372Z,102063.48
2019-02-24T00:09:53.046Z,102058.95
2019-02-24T00:12:24.524Z,102057.08
2019-02-24T00:14:55.925Z,102052.38
2019-02-24T00:17:27.422Z,102045.91
2019-02-24T00:19:58.821Z,102048.22
2019-02-24T00:22:30.231Z,102037.46
2019-02-24T00:25:01.606Z,102042.80
2019-02-24T00:27:34.323Z,102037.78
2019-02-24T00:30:07.362Z,102033.13
2019-02-24T00:32:38.757Z,102035.42
2019-02-24T00:35:10.235Z,102030.84
2019-02-24T00:37:41.671Z,102026.70
2019-02-24T00:40:13.108Z,102023.63
2019-02-24T00:42:44.819Z,102020.51
2019-02-24T00:45:16.234Z,102029.03
2019-02-24T00:47:47.642Z,102030.33
2019-02-24T00:50:19.987Z,102026.72
2019-02-24T00:52:51.301Z,102024.77
2019-02-24T00:55:22.780Z,102026.72
2019-02-24T00:57:54.254Z,102026.89
2019-02-24T01:00:25.655Z,102022.19
2019-02-24T01:02:57.059Z,102028.10
2019-02-24T01:05:28.465Z,102020.50
2019-02-24T01:07:59.876Z,102021.47
2019-02-24T01:10:31.292Z,102018.84
2019-02-24T01:13:02.672Z,102013.61
2019-02-24T01:15:34.047Z,102019.34
2019-02-24T01:18:05.462Z,102011.81
2019-02-24T01:20:36.747Z,102015.31
2019-02-24T01:23:08.102Z,102016.89
2019-02-24T01:25:39.507Z,102022.44
2019-02-24T01:28:11.012Z,102018.84
2019-02-24T01:30:42.525Z,102012.77
2019-02-24T01:33:14.088Z,102020.86
2019-02-24T01:35:45.604Z,102017.89
2019-02-24T01:38:16.979Z,102005.59
2019-02-24T01:40:48.346Z,102010.52
2019-02-24T01:43:19.751Z,102008.38
2019-02-24T01:45:51.122Z,102007.77
2019-02-24T01:48:22.465Z,102005.95
2019-02-24T01:50:53.971Z,102005.94
2019-02-24T01:53:25.357Z,102007.47
2019-02-24T01:55:56.793Z,102005.81
2019-02-24T01:58:34.832Z,101994.94
2019-02-24T02:01:01.212Z,101995.30
2019-02-24T02:03:32.650Z,102003.52
2019-02-24T02:06:04.057Z,101998.58
2019-02-24T02:08:35.387Z,102001.92
2019-02-24T02:11:06.699Z,101998.80
2019-02-24T02:13:38.167Z,102004.78
2019-02-24T02:16:09.567Z,102008.55
2019-02-24T02:18:40.975Z,102014.41
2019-02-24T02:21:12.352Z,102017.72
2019-02-24T02:23:43.727Z,102011.66
2019-02-24T02:26:15.152Z,102014.36
2019-02-24T02:28:46.544Z,102013.91
2019-02-24T02:31:18.026Z,102007.73
2019-02-24T02:33:49.350Z,102011.34
2019-02-24T02:36:20.824Z,102011.34
2019-02-24T02:38:53.152Z,102011.02
2019-02-24T02:41:24.550Z,102003.59
2019-02-24T02:43:55.918Z,102011.28
2019-02-24T02:46:27.558Z,102012.91
2019-02-24T02:48:58.919Z,102010.41
2019-02-24T02:51:30.371Z,102001.58
2019-02-24T02:54:02.063Z,102008.88
2019-02-24T02:56:33.436Z,102005.08
2019-02-24T02:59:04.770Z,102009.37
2019-02-24T03:01:36.196Z,102011.78
2019-02-24T03:04:07.579Z,102008.70
2019-02-24T03:06:59.059Z,102014.27
2019-02-24T03:09:30.467Z,102002.58
2019-02-24T03:12:01.998Z,102006.97
2019-02-24T03:14:33.425Z,102014.86
2019-02-24T03:17:04.730Z,102009.77
2019-02-24T03:19:37.152Z,102006.05
2019-02-24T03:22:08.541Z,102006.51
2019-02-24T03:24:39.908Z,102001.73
2019-02-24T03:27:11.306Z,102005.30
2019-02-24T03:29:43.630Z,102004.28
2019-02-24T03:32:15.267Z,102001.62
2019-02-24T03:34:46.632Z,102009.20
2019-02-24T03:37:17.986Z,101995.61
2019-02-24T03:39:49.339Z,101999.50
2019-02-24T03:42:20.899Z,102002.19
2019-02-24T03:44:53.280Z,102003.04
2019-02-24T03:47:25.705Z,102003.92
2019-02-24T03:49:57.166Z,101998.72
2019-02-24T03:52:28.538Z,102003.14
2019-02-24T03:54:59.949Z,102007.03
2019-02-24T03:57:31.333Z,102009.69
2019-02-24T04:00:02.687Z,102009.39
2019-02-24T04:02:34.105Z,102011.49
2019-02-24T04:05:06.227Z,102010.14
2019-02-24T04:07:37.592Z,102012.09
2019-02-24T04:10:08.987Z,102018.19
2019-02-24T04:12:41.542Z,102007.74
2019-02-24T04:15:12.980Z,102018.08
2019-02-24T04:17:44.724Z,102022.36
2019-02-24T04:20:16.101Z,102014.47
2019-02-24T04:22:47.505Z,102023.74
2019-02-24T04:25:18.918Z,102018.35
2019-02-24T04:27:50.247Z,102019.18
2019-02-24T04:30:21.599Z,102020.84
2019-02-24T04:32:53.285Z,102022.93
2019-02-24T04:35:24.702Z,102019.17
2019-02-24T04:37:56.106Z,102017.83
2019-02-24T04:40:27.516Z,102024.88
2019-02-24T04:42:58.922Z,102032.48
2019-02-24T04:45:30.340Z,102032.17
2019-02-24T04:48:01.752Z,102032.21
2019-02-24T04:50:33.117Z,102026.55
2019-02-24T04:53:05.536Z,102037.52
2019-02-24T04:55:36.914Z,102044.99
2019-02-24T04:58:08.333Z,102044.92
2019-02-24T05:00:39.768Z,102042.94
2019-02-24T05:03:11.130Z,102048.08
2019-02-24T05:05:42.534Z,102051.73
2019-02-24T05:08:13.928Z,102040.78
2019-02-24T05:10:45.338Z,102049.74
2019-02-24T05:13:16.764Z,102055.12
2019-02-24T05:15:48.178Z,102052.74
2019-02-24T05:18:19.538Z,102055.90
2019-02-24T05:20:50.940Z,102051.75
2019-02-24T05:23:22.324Z,102053.68
2019-02-24T05:25:54.118Z,102050.01
2019-02-24T05:28:25.397Z,102054.64
2019-02-24T05:30:56.763Z,102055.27
2019-02-24T05:33:29.182Z,102063.64
2019-02-24T05:36:00.641Z,102065.30
2019-02-24T05:38:31.941Z,102068.23
2019-02-24T05:41:03.320Z,102058.41
2019-02-24T05:43:34.666Z,102060.06
2019-02-24T05:46:06.014Z,102052.66
2019-02-24T05:48:37.323Z,102049.40
2019-02-24T05:51:08.750Z,102045.55
2019-02-24T05:53:40.160Z,102046.17
2019-02-24T05:56:11.523Z,102042.12
2019-02-24T05:58:42.941Z,102045.03
2019-02-24T06:01:14.397Z,102043.87
2019-02-24T06:03:45.759Z,102039.03
2019-02-24T06:06:17.140Z,102038.55
2019-02-24T06:08:48.545Z,102041.23
2019-02-24T06:11:20.351Z,102039.86
2019-02-24T06:13:52.262Z,102043.73
2019-02-24T06:16:23.741Z,102040.33
2019-02-24T06:18:55.132Z,102036.58
2019-02-24T06:21:26.461Z,102042.48
2019-02-24T06:23:57.873Z,102047.85
2019-02-24T06:26:30.208Z,102047.16
2019-02-24T06:29:02.384Z,102042.97
2019-02-24T06:31:33.732Z,102047.66
2019-02-24T06:34:05.711Z,102037.41
2019-02-24T06:36:37.516Z,102020.84
2019-02-24T06:39:08.749Z,102024.92
2019-02-24T06:41:40.260Z,102024.25
2019-02-24T06:44:11.631Z,102020.53
2019-02-24T06:46:43.027Z,102016.41
2019-02-24T06:49:14.468Z,102003.21
2019-02-24T06:51:45.759Z,101994.64
2019-02-24T06:54:17.260Z,102004.45
2019-02-24T06:56:48.579Z,102007.63
2019-02-24T06:59:19.915Z,101997.16
2019-02-24T07:01:51.276Z,102005.63
2019-02-24T07:04:22.810Z,102002.58
2019-02-24T07:06:54.186Z,102002.78
2019-02-24T07:09:25.568Z,102010.87
2019-02-24T07:11:56.966Z,102016.38
2019-02-24T07:14:29.599Z,102017.95
2019-02-24T07:17:01.044Z,102015.75
2019-02-24T07:19:32.452Z,102021.98
2019-02-24T07:22:03.806Z,102017.84
2019-02-24T07:24:35.344Z,102013.70
2019-02-24T07:27:06.722Z,102003.20
2019-02-24T07:29:37.990Z,102003.20
2019-02-24T07:32:09.302Z,102013.57
2019-02-24T07:34:42.252Z,102008.86
2019-02-24T07:37:13.514Z,102006.86
2019-02-24T07:39:44.864Z,101999.44
2019-02-24T07:42:16.080Z,101995.30
2019-02-24T07:44:47.710Z,101995.02
2019-02-24T07:47:19.023Z,101988.05
2019-02-24T07:49:51.626Z,101979.41
2019-02-24T07:52:22.944Z,101979.88
2019-02-24T07:54:54.243Z,101979.50
2019-02-24T07:57:25.530Z,101985.13
2019-02-24T07:59:56.777Z,101977.74
2019-02-24T08:02:28.102Z,101978.52
2019-02-24T08:04:59.451Z,101965.07
2019-02-24T08:07:30.747Z,101966.25
2019-02-24T08:10:02.123Z,101961.23
2019-02-24T08:12:33.452Z,101970.25
2019-02-24T08:15:06.330Z,101963.25
2019-02-24T08:17:37.048Z,101958.33
2019-02-24T08:20:09.299Z,101949.05
2019-02-24T08:22:42.205Z,101958.75
2019-02-24T08:25:13.402Z,101967.23
2019-02-24T08:27:44.768Z,101965.47
2019-02-24T08:30:16.096Z,101967.09
2019-02-24T08:32:47.324Z,101968.12
2019-02-24T08:35:18.773Z,101961.00
2019-02-24T08:37:50.087Z,101976.34
2019-02-24T08:40:21.594Z,101977.93
2019-02-24T08:42:52.928Z,101975.50
2019-02-24T08:45:24.280Z,101973.86
2019-02-24T08:47:55.677Z,101962.29
2019-02-24T08:50:26.867Z,101961.44
2019-02-24T08:52:58.569Z,101962.02
2019-02-24T08:55:30.021Z,101960.31
2019-02-24T08:58:04.646Z,101963.31
2019-02-24T09:00:36.826Z,101962.19
2019-02-24T09:03:08.140Z,101963.19
2019-02-24T09:05:39.465Z,101960.16
2019-02-24T09:08:10.708Z,101953.53
2019-02-24T09:10:42.167Z,101954.31
2019-02-24T09:13:13.531Z,101952.78
2019-02-24T09:15:44.883Z,101951.31
2019-02-24T09:18:16.178Z,101948.81
2019-02-24T09:20:47.520Z,101952.97
2019-02-24T09:23:18.794Z,101946.64
2019-02-24T09:25:50.160Z,101951.38
2019-02-24T09:28:21.479Z,101945.65
2019-02-24T09:31:00.435Z,101945.85
2019-02-24T09:33:26.103Z,101939.80
2019-02-24T09:35:57.805Z,101934.78
2019-02-24T09:38:29.008Z,101935.95
2019-02-24T09:41:01.293Z,101928.51
2019-02-24T09:43:32.621Z,101929.06
2019-02-24T09:46:03.887Z,101928.93
2019-02-24T09:48:35.230Z,101921.47
2019-02-24T09:51:06.600Z,101909.22
2019-02-24T09:53:37.823Z,101915.09
2019-02-24T09:56:09.153Z,101914.83
2019-02-24T09:58:40.421Z,101907.34
2019-02-24T10:01:11.771Z,101898.80
2019-02-24T10:03:43.042Z,101901.83
2019-02-24T10:06:15.826Z,101902.81
2019-02-24T10:08:49.656Z,101899.33
2019-02-24T10:11:20.983Z,101894.93
2019-02-24T10:13:52.203Z,101886.33
2019-02-24T10:16:23.432Z,101887.61
2019-02-24T10:18:54.855Z,101881.89
2019-02-24T10:21:26.199Z,101877.64
2019-02-24T10:23:57.495Z,101874.09
2019-02-24T10:26:28.981Z,101870.09
2019-02-24T10:29:00.298Z,101867.02
2019-02-24T10:31:31.566Z,101866.56
2019-02-24T10:34:02.764Z,101870.77
2019-02-24T10:36:34.217Z,101861.82
2019-02-24T10:39:05.798Z,101858.50
2019-02-24T10:41:38.145Z,101858.30
2019-02-24T10:44:09.481Z,101856.31
2019-02-24T10:46:40.716Z,101859.02
2019-02-24T10:49:12.137Z,101844.91
2019-02-24T10:51:43.359Z,101846.28
2019-02-24T10:54:14.776Z,101839.38
2019-02-24T10:56:46.408Z,101846.39
2019-02-24T10:59:17.728Z,101838.91
2019-02-24T11:01:49.024Z,101835.41
2019-02-24T11:04:22.790Z,101822.51
2019-02-24T11:06:54.153Z,101825.89
2019-02-24T11:09:25.490Z,101821.50
2019-02-24T11:11:56.710Z,101825.79
2019-02-24T11:14:28.124Z,101825.80
2019-02-24T11:16:59.405Z,101820.47
2019-02-24T11:19:30.818Z,101818.80
2019-02-24T11:22:02.114Z,101816.53
2019-02-24T11:24:33.378Z,101810.40
2019-02-24T11:27:04.789Z,101811.88
2019-02-24T11:29:36.053Z,101813.92
2019-02-24T11:32:08.380Z,101812.81
2019-02-24T11:34:39.663Z,101808.61
2019-02-24T11:37:11.167Z,101803.08
2019-02-24T11:39:42.481Z,101802.23
2019-02-24T11:42:13.826Z,101801.50
2019-02-24T11:44:44.975Z,101805.70
2019-02-24T11:47:17.329Z,101795.66
2019-02-24T11:49:51.434Z,101799.69
2019-02-24T11:52:23.106Z,101801.66
2019-02-24T11:54:54.385Z,101799.94
2019-02-24T11:57:25.776Z,101793.44
2019-02-24T11:59:57.155Z,101798.80
2019-02-24T12:02:34.433Z,101785.23
2019-02-24T12:05:00.679Z,101787.97
2019-02-24T12:07:31.921Z,101780.31
2019-02-24T12:10:04.779Z,101771.54
2019-02-24T12:12:38.433Z,101773.30
2019-02-24T12:15:13.988Z,101772.63
2019-02-24T12:17:45.339Z,101771.39
2019-02-24T12:20:16.741Z,101773.44
2019-02-24T12:22:48.070Z,101768.53
2019-02-24T12:25:19.978Z,101762.47
2019-02-24T12:27:51.359Z,101761.38
2019-02-24T12:30:22.853Z,101763.92
2019-02-24T12:32:54.208Z,101766.97
2019-02-24T12:35:25.496Z,101767.16
2019-02-24T12:37:56.889Z,101767.39
2019-02-24T12:40:29.659Z,101762.98
2019-02-24T12:43:00.865Z,101757.68
2019-02-24T12:45:32.211Z,101757.68
2019-02-24T12:48:03.677Z,101768.34
2019-02-24T12:50:35.014Z,101767.30
2019-02-24T12:53:06.509Z,101769.61
2019-02-24T12:55:38.259Z,101761.16
2019-02-24T12:58:09.825Z,101765.09
2019-02-24T13:00:41.512Z,101760.28
2019-02-24T13:03:12.896Z,101762.80
2019-02-24T13:05:44.119Z,101764.38
2019-02-24T13:08:15.403Z,101766.97
2019-02-24T13:10:46.682Z,101770.20
2019-02-24T13:13:18.067Z,101768.11
2019-02-24T13:15:51.300Z,101766.88
2019-02-24T13:18:21.717Z,101767.12
2019-02-24T13:20:52.820Z,101770.42
2019-02-24T13:23:24.401Z,101769.72
2019-02-24T13:25:55.721Z,101768.70
2019-02-24T13:28:27.104Z,101771.16
2019-02-24T13:30:58.331Z,101758.83
2019-02-24T13:33:29.656Z,101758.67
2019-02-24T13:36:01.078Z,101756.64
2019-02-24T13:38:32.328Z,101759.09
2019-02-24T13:41:03.629Z,101756.76
2019-02-24T13:43:34.945Z,101759.37
2019-02-24T13:46:06.227Z,101752.56
2019-02-24T13:48:37.707Z,101753.77
2019-02-24T13:51:09.046Z,101755.19
2019-02-24T13:53:40.322Z,101758.70
2019-02-24T13:56:13.272Z,101761.04
2019-02-24T13:58:44.855Z,101756.63
2019-02-24T14:01:16.041Z,101755.80
2019-02-24T14:03:47.515Z,101754.88
2019-02-24T14:06:20.362Z,101756.20
2019-02-24T14:08:51.995Z,101749.36
2019-02-24T14:11:23.258Z,101760.57
2019-02-24T14:13:54.549Z,101754.23
2019-02-24T14:16:25.906Z,101754.12
2019-02-24T14:18:57.225Z,101747.11
2019-02-24T14:21:28.565Z,101751.05
2019-02-24T14:23:59.945Z,101751.41
2019-02-24T14:26:31.228Z,101757.70
2019-02-24T14:29:08.604Z,101757.97
2019-02-24T14:31:41.174Z,101757.81
2019-02-24T14:34:12.470Z,101756.94
2019-02-24T14:36:44.024Z,101760.11
2019-02-24T14:39:15.600Z,101758.31
2019-02-24T14:41:46.812Z,101761.03
2019-02-24T14:44:20.705Z,101754.32
2019-02-24T14:46:51.939Z,101749.86
2019-02-24T14:49:24.393Z,101753.45
2019-02-24T14:51:55.569Z,101746.60
2019-02-24T14:54:26.990Z,101749.00
2019-02-24T14:56:58.786Z,101753.34
2019-02-24T14:59:30.029Z,101754.57
2019-02-24T15:02:01.252Z,101750.86
2019-02-24T15:04:32.564Z,101753.30
2019-02-24T15:07:04.022Z,101740.88
2019-02-24T15:09:35.320Z,101750.81
2019-02-24T15:12:06.688Z,101754.98
2019-02-24T15:14:37.964Z,101754.05
2019-02-24T15:17:09.191Z,101758.78
2019-02-24T15:19:40.683Z,101753.30
2019-02-24T15:22:11.905Z,101753.34
2019-02-24T15:24:43.445Z,101756.36
2019-02-24T15:27:14.682Z,101764.06
2019-02-24T15:29:45.911Z,101762.52
2019-02-24T15:32:17.090Z,101762.52
2019-02-24T15:34:48.459Z,101760.27
2019-02-24T15:37:19.981Z,101761.88
2019-02-24T15:39:51.301Z,101761.68
2019-02-24T15:42:22.615Z,101764.80
2019-02-24T15:44:53.942Z,101763.74
2019-02-24T15:47:25.368Z,101762.56
2019-02-24T15:49:56.725Z,101761.55
2019-02-24T15:52:28.101Z,101761.55
2019-02-24T15:54:59.605Z,101769.34
2019-02-24T15:57:30.972Z,101767.53
2019-02-24T16:00:02.443Z,101769.33
2019-02-24T16:02:35.415Z,101754.78
2019-02-24T16:05:08.765Z,101767.59
2019-02-24T16:07:40.110Z,101768.73
2019-02-24T16:10:14.466Z,101771.18
2019-02-24T16:12:45.730Z,101763.78
2019-02-24T16:15:22.352Z,101763.78
2019-02-24T16:17:53.558Z,101766.08
2019-02-24T16:20:27.388Z,101769.88
2019-02-24T16:22:58.903Z,101760.19
2019-02-24T16:25:30.279Z,101757.27
2019-02-24T16:28:03.315Z,101763.78
2019-02-24T16:30:34.648Z,101762.83
2019-02-24T16:46:06.403Z,101773.93
2019-02-24T16:48:39.494Z,101775.90
2019-02-24T16:51:11.051Z,101768.53
2019-02-24T16:53:42.456Z,101768.74
2019-02-24T16:56:14.002Z,101762.90
2019-02-24T16:58:45.414Z,101762.23
2019-02-24T17:01:16.973Z,101762.64
2019-02-24T17:03:48.421Z,101756.13
2019-02-24T17:06:19.836Z,101750.75
2019-02-24T17:08:52.233Z,101747.70
2019-02-24T17:11:24.494Z,101748.42
2019-02-24T17:13:56.051Z,101740.98
2019-02-24T17:16:27.524Z,101736.15
2019-02-24T17:19:00.282Z,101735.47
2019-02-24T17:21:31.667Z,101731.44
2019-02-24T17:24:02.954Z,101730.52
2019-02-24T17:26:34.270Z,101728.23
2019-02-24T17:29:05.528Z,101727.59
2019-02-24T17:31:37.908Z,101727.59
2019-02-24T17:34:09.191Z,101724.26
2019-02-24T17:36:40.504Z,101719.17
2019-02-24T17:39:11.935Z,101716.52
2019-02-24T17:41:43.639Z,101713.33
2019-02-24T17:44:15.116Z,101712.86
2019-02-24T17:46:46.544Z,101710.34
2019-02-24T17:49:18.161Z,101709.59
2019-02-24T17:51:49.535Z,101699.36
2019-02-24T17:54:22.123Z,101699.36
2019-02-24T17:56:53.536Z,101690.47
2019-02-24T17:59:25.052Z,101690.47
2019-02-24T18:01:56.531Z,101698.61
2019-02-24T18:04:27.933Z,101696.94
2019-02-24T18:06:59.296Z,101692.34
2019-02-24T18:09:30.643Z,101692.34
2019-02-24T18:12:01.960Z,101690.70
2019-02-24T18:14:33.266Z,101696.81
2019-02-24T18:17:04.473Z,101701.45
2019-02-24T18:19:35.839Z,101706.36
2019-02-24T18:22:07.153Z,101704.45
2019-02-24T18:24:38.455Z,101705.94
2019-02-24T18:27:09.810Z,101700.25
2019-02-24T18:29:41.091Z,101700.25
2019-02-24T18:32:12.436Z,101697.02
2019-02-24T18:34:44.621Z,101690.95
2019-02-24T18:37:16.224Z,101696.30
2019-02-24T18:39:47.565Z,101696.30
2019-02-24T18:42:18.861Z,101700.92
2019-02-24T18:44:50.359Z,101697.13
2019-02-24T18:47:21.771Z,101697.59
2019-02-24T18:49:53.164Z,101695.86
2019-02-24T18:52:25.802Z,101703.55
2019-02-24T18:55:00.334Z,101700.89
2019-02-24T18:57:31.648Z,101702.33
2019-02-24T19:00:02.941Z,101695.52
2019-02-24T19:02:35.757Z,101695.52
2019-02-24T19:05:08.285Z,101702.62
2019-02-24T19:07:39.526Z,101697.53
2019-02-24T19:10:22.124Z,101696.86
2019-02-24T19:12:53.435Z,101691.34
2019-02-24T19:15:25.218Z,101693.20
2019-02-24T19:17:56.556Z,101692.93
2019-02-24T19:20:27.832Z,101685.69
2019-02-24T19:22:59.247Z,101687.27
2019-02-24T19:25:30.658Z,101684.84
2019-02-24T19:28:02.123Z,101688.23
2019-02-24T19:30:33.574Z,101683.52
2019-02-24T19:33:04.933Z,101692.80
2019-02-24T19:35:36.386Z,101695.00
2019-02-24T19:38:07.933Z,101698.05
2019-02-24T19:40:39.320Z,101691.20
2019-02-24T19:43:10.720Z,101689.38
2019-02-24T19:45:42.141Z,101693.60
2019-02-24T19:48:13.549Z,101689.09
2019-02-24T19:50:44.987Z,101679.45
2019-02-24T19:53:16.374Z,101681.83
2019-02-24T19:55:47.736Z,101676.11
2019-02-24T19:58:19.124Z,101672.59
2019-02-24T20:00:55.216Z,101679.91
2019-02-24T20:03:26.683Z,101690.64
2019-02-24T20:05:58.341Z,101686.27
2019-02-24T20:08:32.671Z,101676.63
2019-02-24T20:11:04.062Z,101681.80
2019-02-24T20:13:35.514Z,101687.25
2019-02-24T20:16:06.889Z,101684.48
2019-02-24T20:18:38.269Z,101692.03
2019-02-24T20:21:11.202Z,101690.84
2019-02-24T20:23:43.197Z,101688.57
2019-02-24T20:26:15.579Z,101689.25
2019-02-24T20:28:46.993Z,101688.63
2019-02-24T20:31:18.441Z,101689.31
2019-02-24T20:33:51.277Z,101690.64
2019-02-24T20:36:24.103Z,101687.58
2019-02-24T20:38:56.117Z,101678.30
2019-02-24T20:41:27.519Z,101676.38
2019-02-24T20:43:58.920Z,101669.59
2019-02-24T20:46:30.318Z,101677.55
2019-02-24T20:49:01.794Z,101671.89
2019-02-24T20:51:33.231Z,101670.21
2019-02-24T20:54:04.667Z,101667.73
2019-02-24T20:56:36.080Z,101671.70
2019-02-24T20:59:07.460Z,101668.87
2019-02-24T21:01:38.900Z,101668.00
2019-02-24T21:04:10.382Z,101663.41
2019-02-24T21:06:41.826Z,101666.39
2019-02-24T21:09:13.257Z,101663.29
2019-02-24T21:11:44.703Z,101663.29
2019-02-24T21:14:16.121Z,101659.23
2019-02-24T21:16:47.440Z,101656.99
2019-02-24T21:19:18.856Z,101650.52
2019-02-24T21:21:50.285Z,101655.32
2019-02-24T21:24:22.692Z,101652.02
2019-02-24T21:26:54.091Z,101653.11
2019-02-24T21:29:25.383Z,101658.30
2019-02-24T21:31:56.775Z,101665.17
2019-02-24T21:34:28.159Z,101663.86
2019-02-24T21:36:59.545Z,101655.66
2019-02-24T21:39:31.045Z,101653.52
2019-02-24T21:42:02.551Z,101652.66
2019-02-24T21:44:33.939Z,101651.40
2019-02-24T21:47:05.344Z,101646.94
2019-02-24T21:49:36.729Z,101642.55
2019-02-24T21:52:08.110Z,101643.30
2019-02-24T21:54:40.549Z,101648.27
2019-02-24T21:57:11.907Z,101640.66
2019-02-24T21:59:43.320Z,101633.72
2019-02-24T22:02:14.725Z,101633.59
2019-02-24T22:04:46.134Z,101632.27
2019-02-24T22:07:17.511Z,101636.61
2019-02-24T22:09:48.881Z,101636.77
2019-02-24T22:12:20.298Z,101634.47
2019-02-24T22:14:51.652Z,101628.28
2019-02-24T22:17:23.075Z,101620.73
2019-02-24T22:19:54.514Z,101623.61
2019-02-24T22:22:26.031Z,101619.87
2019-02-24T22:24:57.511Z,101616.73
2019-02-24T22:27:28.914Z,101614.66
2019-02-24T22:30:00.327Z,101612.58
2019-02-24T22:32:31.698Z,101621.41
2019-02-24T22:35:03.044Z,101613.39
2019-02-24T22:37:34.418Z,101610.91
2019-02-24T22:40:13.216Z,101609.42
2019-02-24T22:42:45.103Z,101604.33
2019-02-24T22:45:22.286Z,101599.99
2019-02-24T22:47:53.613Z,101593.72
2019-02-24T22:50:24.883Z,101586.72
2019-02-24T22:52:56.132Z,101593.35
2019-02-24T22:55:27.415Z,101595.63
2019-02-24T22:57:58.685Z,101587.06
2019-02-24T23:00:45.644Z,101591.34
2019-02-24T23:03:18.414Z,101592.44
2019-02-24T23:05:49.696Z,101592.44
2019-02-24T23:08:20.998Z,101588.11
2019-02-24T23:10:52.586Z,101585.33
2019-02-24T23:13:23.784Z,101585.33
2019-02-24T23:15:55.047Z,101588.89
2019-02-24T23:18:26.310Z,101577.20
2019-02-24T23:20:57.581Z,101578.31
2019-02-24T23:23:28.948Z,101568.95
2019-02-24T23:26:00.246Z,101560.63
2019-02-24T23:28:31.522Z,101557.63
2019-02-24T23:31:02.669Z,101559.03
2019-02-24T23:33:33.997Z,101539.58
2019-02-24T23:36:05.222Z,101539.58
2019-02-24T23:38:36.502Z,101548.23
2019-02-24T23:41:07.773Z,101540.62
2019-02-24T23:43:39.161Z,101542.12
2019-02-24T23:46:10.418Z,101527.05
2019-02-24T23:48:42.224Z,101535.47
2019-02-24T23:51:13.523Z,101527.00
2019-02-24T23:53:44.751Z,101526.94
2019-02-24T23:56:16.029Z,101526.37
2019-02-24T23:58:47.324Z,101529.25
